sensor_id;sensor_type;location;lat;lon;timestamp;pressure;altitude;pressure_sealevel;temperature;humidity
18697;BME280;22617;43.690;27.956;2022-12-18T00:03:35;99575.38;;;8.61;88.77
18697;BME280;22617;43.690;27.956;2022-12-18T00:08:40;99577.69;;;8.38;88.63
18697;BME280;22617;43.690;27.956;2022-12-18T00:13:44;99578.56;;;8.40;88.61
18697;BME280;22617;43.690;27.956;2022-12-18T00:18:51;99574.31;;;8.45;88.64
18697;BME280;22617;43.690;27.956;2022-12-18T00:23:56;99585.53;;;8.43;87.96
18697;BME280;22617;43.690;27.956;2022-12-18T00:29:01;99589.72;;;8.35;87.93
18697;BME280;22617;43.690;27.956;2022-12-18T00:34:09;99606.91;;;8.26;87.72
18697;BME280;22617;43.690;27.956;2022-12-18T00:39:14;99641.47;;;8.22;88.03
18697;BME280;22617;43.690;27.956;2022-12-18T00:44:19;99626.69;;;8.18;88.53
18697;BME280;22617;43.690;27.956;2022-12-18T00:49:24;99619.72;;;8.16;88.76
18697;BME280;22617;43.690;27.956;2022-12-18T00:54:27;99613.53;;;8.08;88.49
18697;BME280;22617;43.690;27.956;2022-12-18T00:59:31;99605.00;;;8.15;88.33
18697;BME280;22617;43.690;27.956;2022-12-18T01:04:36;99606.66;;;8.10;88.31
18697;BME280;22617;43.690;27.956;2022-12-18T01:09:40;99615.31;;;8.12;88.41
18697;BME280;22617;43.690;27.956;2022-12-18T01:14:43;99618.00;;;8.15;87.33
18697;BME280;22617;43.690;27.956;2022-12-18T01:19:50;99624.03;;;8.14;87.38
18697;BME280;22617;43.690;27.956;2022-12-18T01:24:54;99629.06;;;8.06;87.62
18697;BME280;22617;43.690;27.956;2022-12-18T01:29:57;99640.47;;;8.14;88.45
18697;BME280;22617;43.690;27.956;2022-12-18T01:35:03;99667.34;;;8.18;87.80
18697;BME280;22617;43.690;27.956;2022-12-18T01:40:08;99659.59;;;8.21;87.06
18697;BME280;22617;43.690;27.956;2022-12-18T01:45:25;99651.63;;;8.09;87.20
18697;BME280;22617;43.690;27.956;2022-12-18T01:50:33;99647.34;;;8.12;86.45
18697;BME280;22617;43.690;27.956;2022-12-18T01:55:42;99647.72;;;7.82;87.45
18697;BME280;22617;43.690;27.956;2022-12-18T02:00:47;99646.75;;;7.76;88.31
18697;BME280;22617;43.690;27.956;2022-12-18T02:06:01;99643.84;;;7.58;88.79
18697;BME280;22617;43.690;27.956;2022-12-18T02:11:12;99666.56;;;7.72;89.23
18697;BME280;22617;43.690;27.956;2022-12-18T02:16:23;99664.75;;;7.68;89.10
18697;BME280;22617;43.690;27.956;2022-12-18T02:21:34;99662.84;;;7.58;89.55
18697;BME280;22617;43.690;27.956;2022-12-18T02:26:44;99668.03;;;7.58;90.23
18697;BME280;22617;43.690;27.956;2022-12-18T02:31:52;99672.97;;;7.43;90.08
18697;BME280;22617;43.690;27.956;2022-12-18T02:36:59;99683.69;;;7.63;90.11
18697;BME280;22617;43.690;27.956;2022-12-18T02:42:06;99695.72;;;7.59;89.32
18697;BME280;22617;43.690;27.956;2022-12-18T02:47:12;99688.66;;;7.51;88.75
18697;BME280;22617;43.690;27.956;2022-12-18T02:52:23;99716.06;;;7.38;88.50
18697;BME280;22617;43.690;27.956;2022-12-18T02:57:34;99716.72;;;7.29;88.38
18697;BME280;22617;43.690;27.956;2022-12-18T03:02:45;99733.63;;;7.11;88.45
18697;BME280;22617;43.690;27.956;2022-12-18T03:07:56;99739.41;;;6.97;88.32
18697;BME280;22617;43.690;27.956;2022-12-18T03:13:08;99757.44;;;6.93;88.53
18697;BME280;22617;43.690;27.956;2022-12-18T03:18:15;99768.53;;;6.87;88.49
18697;BME280;22617;43.690;27.956;2022-12-18T03:23:22;99797.88;;;6.86;88.37
18697;BME280;22617;43.690;27.956;2022-12-18T03:28:30;99821.94;;;6.82;87.71
18697;BME280;22617;43.690;27.956;2022-12-18T03:33:40;99835.28;;;6.63;87.66
18697;BME280;22617;43.690;27.956;2022-12-18T03:38:45;99837.22;;;6.70;87.63
18697;BME280;22617;43.690;27.956;2022-12-18T03:43:55;99830.22;;;6.68;87.37
18697;BME280;22617;43.690;27.956;2022-12-18T03:49:10;99843.75;;;6.56;87.23
18697;BME280;22617;43.690;27.956;2022-12-18T03:54:16;99858.09;;;6.43;87.22
18697;BME280;22617;43.690;27.956;2022-12-18T03:59:30;99868.84;;;6.26;86.98
18697;BME280;22617;43.690;27.956;2022-12-18T04:04:35;99856.84;;;6.28;86.70
18697;BME280;22617;43.690;27.956;2022-12-18T04:09:41;99868.34;;;6.07;86.44
18697;BME280;22617;43.690;27.956;2022-12-18T04:14:49;99873.69;;;5.85;85.95
18697;BME280;22617;43.690;27.956;2022-12-18T04:19:53;99889.00;;;5.78;85.83
18697;BME280;22617;43.690;27.956;2022-12-18T04:24:58;99890.38;;;5.65;85.34
18697;BME280;22617;43.690;27.956;2022-12-18T04:30:11;99881.72;;;5.64;85.37
18697;BME280;22617;43.690;27.956;2022-12-18T04:35:15;99893.69;;;5.61;85.28
18697;BME280;22617;43.690;27.956;2022-12-18T04:40:20;99896.38;;;5.64;85.09
18697;BME280;22617;43.690;27.956;2022-12-18T04:45:26;99911.97;;;5.67;86.30
18697;BME280;22617;43.690;27.956;2022-12-18T04:50:29;99923.06;;;5.63;87.22
18697;BME280;22617;43.690;27.956;2022-12-18T04:55:33;99943.31;;;5.49;87.04
18697;BME280;22617;43.690;27.956;2022-12-18T05:00:38;99955.44;;;5.52;87.56
18697;BME280;22617;43.690;27.956;2022-12-18T05:05:42;99955.13;;;5.41;87.29
18697;BME280;22617;43.690;27.956;2022-12-18T05:10:46;99976.88;;;5.48;88.20
18697;BME280;22617;43.690;27.956;2022-12-18T05:15:52;99979.09;;;5.37;88.01
18697;BME280;22617;43.690;27.956;2022-12-18T05:20:56;99980.78;;;5.35;88.56
18697;BME280;22617;43.690;27.956;2022-12-18T05:26:02;99979.97;;;5.38;88.86
18697;BME280;22617;43.690;27.956;2022-12-18T05:31:08;99997.63;;;5.24;89.39
18697;BME280;22617;43.690;27.956;2022-12-18T05:36:11;100005.91;;;5.14;90.01
18697;BME280;22617;43.690;27.956;2022-12-18T05:41:15;100005.19;;;5.18;91.20
18697;BME280;22617;43.690;27.956;2022-12-18T05:46:20;100013.78;;;5.17;91.30
18697;BME280;22617;43.690;27.956;2022-12-18T05:51:24;100025.94;;;4.96;92.01
18697;BME280;22617;43.690;27.956;2022-12-18T05:56:27;100039.84;;;4.99;92.50
18697;BME280;22617;43.690;27.956;2022-12-18T06:01:32;100035.72;;;5.04;93.03
18697;BME280;22617;43.690;27.956;2022-12-18T06:06:36;100041.50;;;4.97;92.87
18697;BME280;22617;43.690;27.956;2022-12-18T06:11:40;100055.25;;;4.96;93.81
18697;BME280;22617;43.690;27.956;2022-12-18T06:16:45;100065.56;;;4.96;93.71
18697;BME280;22617;43.690;27.956;2022-12-18T06:21:48;100083.06;;;5.03;94.16
18697;BME280;22617;43.690;27.956;2022-12-18T06:26:52;100088.50;;;5.11;93.93
18697;BME280;22617;43.690;27.956;2022-12-18T06:31:57;100109.72;;;5.02;93.99
18697;BME280;22617;43.690;27.956;2022-12-18T06:37:02;100112.22;;;5.24;93.45
18697;BME280;22617;43.690;27.956;2022-12-18T06:42:06;100124.09;;;5.19;92.71
18697;BME280;22617;43.690;27.956;2022-12-18T06:47:11;100132.50;;;5.14;92.52
18697;BME280;22617;43.690;27.956;2022-12-18T06:52:15;100144.13;;;5.01;92.11
18697;BME280;22617;43.690;27.956;2022-12-18T06:57:18;100136.97;;;4.94;92.70
18697;BME280;22617;43.690;27.956;2022-12-18T07:02:23;100156.63;;;4.91;92.31
18697;BME280;22617;43.690;27.956;2022-12-18T07:07:27;100153.06;;;4.87;92.69
18697;BME280;22617;43.690;27.956;2022-12-18T07:12:30;100156.78;;;4.94;93.04
18697;BME280;22617;43.690;27.956;2022-12-18T07:17:35;100170.13;;;5.06;93.21
18697;BME280;22617;43.690;27.956;2022-12-18T07:22:39;100168.81;;;4.93;93.14
18697;BME280;22617;43.690;27.956;2022-12-18T07:27:42;100172.13;;;4.91;93.28
18697;BME280;22617;43.690;27.956;2022-12-18T07:32:47;100186.09;;;4.96;93.17
18697;BME280;22617;43.690;27.956;2022-12-18T07:37:51;100203.81;;;5.09;93.53
18697;BME280;22617;43.690;27.956;2022-12-18T07:42:54;100210.97;;;5.16;93.71
18697;BME280;22617;43.690;27.956;2022-12-18T07:47:59;100232.47;;;5.15;93.22
18697;BME280;22617;43.690;27.956;2022-12-18T07:53:03;100234.81;;;5.09;93.04
18697;BME280;22617;43.690;27.956;2022-12-18T07:58:07;100233.63;;;5.23;92.50
18697;BME280;22617;43.690;27.956;2022-12-18T08:03:13;100252.88;;;5.07;92.32
18697;BME280;22617;43.690;27.956;2022-12-18T08:08:17;100260.00;;;5.14;92.64
18697;BME280;22617;43.690;27.956;2022-12-18T08:13:21;100268.06;;;5.22;92.80
18697;BME280;22617;43.690;27.956;2022-12-18T08:18:26;100266.69;;;5.08;92.71
18697;BME280;22617;43.690;27.956;2022-12-18T08:23:30;100272.91;;;5.13;92.69
18697;BME280;22617;43.690;27.956;2022-12-18T08:28:39;100283.75;;;5.26;93.28
18697;BME280;22617;43.690;27.956;2022-12-18T08:33:45;100288.13;;;5.29;92.33
18697;BME280;22617;43.690;27.956;2022-12-18T08:38:49;100278.09;;;5.14;92.66
18697;BME280;22617;43.690;27.956;2022-12-18T08:43:52;100288.06;;;5.27;92.08
18697;BME280;22617;43.690;27.956;2022-12-18T08:49:14;100297.94;;;5.38;92.42
18697;BME280;22617;43.690;27.956;2022-12-18T08:54:18;100301.13;;;5.31;91.95
18697;BME280;22617;43.690;27.956;2022-12-18T08:59:22;100292.97;;;5.20;91.64
18697;BME280;22617;43.690;27.956;2022-12-18T09:04:27;100291.97;;;5.16;91.51
18697;BME280;22617;43.690;27.956;2022-12-18T09:09:31;100304.47;;;5.28;91.92
18697;BME280;22617;43.690;27.956;2022-12-18T09:14:35;100310.31;;;5.22;91.62
18697;BME280;22617;43.690;27.956;2022-12-18T09:19:40;100309.13;;;5.14;91.86
18697;BME280;22617;43.690;27.956;2022-12-18T09:24:44;100311.16;;;5.23;92.00
18697;BME280;22617;43.690;27.956;2022-12-18T09:29:47;100310.66;;;5.32;92.78
18697;BME280;22617;43.690;27.956;2022-12-18T09:34:52;100290.72;;;5.29;92.47
18697;BME280;22617;43.690;27.956;2022-12-18T09:39:55;100270.78;;;5.49;93.06
18697;BME280;22617;43.690;27.956;2022-12-18T09:45:00;100266.66;;;5.54;93.34
18697;BME280;22617;43.690;27.956;2022-12-18T09:50:17;100259.94;;;5.59;93.32
18697;BME280;22617;43.690;27.956;2022-12-18T09:55:27;100259.41;;;5.67;93.07
18697;BME280;22617;43.690;27.956;2022-12-18T10:00:38;100273.94;;;5.88;92.02
18697;BME280;22617;43.690;27.956;2022-12-18T10:05:46;100282.06;;;6.22;91.42
18697;BME280;22617;43.690;27.956;2022-12-18T10:10:53;100280.44;;;6.51;89.82
18697;BME280;22617;43.690;27.956;2022-12-18T10:16:09;100283.69;;;6.20;87.88
18697;BME280;22617;43.690;27.956;2022-12-18T10:21:19;100300.09;;;6.21;87.51
18697;BME280;22617;43.690;27.956;2022-12-18T10:26:24;100299.69;;;6.34;87.16
18697;BME280;22617;43.690;27.956;2022-12-18T10:31:28;100315.53;;;6.43;86.50
18697;BME280;22617;43.690;27.956;2022-12-18T10:36:33;100318.94;;;6.67;85.85
18697;BME280;22617;43.690;27.956;2022-12-18T10:41:37;100327.88;;;6.50;83.68
18697;BME280;22617;43.690;27.956;2022-12-18T10:46:40;100332.59;;;6.36;81.03
18697;BME280;22617;43.690;27.956;2022-12-18T10:51:46;100334.03;;;6.28;79.19
18697;BME280;22617;43.690;27.956;2022-12-18T10:56:49;100334.03;;;6.28;78.29
18697;BME280;22617;43.690;27.956;2022-12-18T11:01:54;100330.38;;;6.47;79.17
18697;BME280;22617;43.690;27.956;2022-12-18T11:07:01;100329.13;;;6.36;77.83
18697;BME280;22617;43.690;27.956;2022-12-18T11:12:15;100332.66;;;6.38;77.90
18697;BME280;22617;43.690;27.956;2022-12-18T11:17:20;100327.81;;;6.48;78.01
18697;BME280;22617;43.690;27.956;2022-12-18T11:22:30;100346.38;;;6.11;77.45
18697;BME280;22617;43.690;27.956;2022-12-18T11:27:34;100344.00;;;6.41;79.08
18697;BME280;22617;43.690;27.956;2022-12-18T11:32:39;100349.78;;;6.34;78.08
18697;BME280;22617;43.690;27.956;2022-12-18T11:37:48;100347.34;;;6.39;78.11
18697;BME280;22617;43.690;27.956;2022-12-18T11:42:58;100346.22;;;6.56;78.29
18697;BME280;22617;43.690;27.956;2022-12-18T11:48:14;100347.56;;;6.45;78.42
18697;BME280;22617;43.690;27.956;2022-12-18T11:53:22;100351.97;;;6.24;78.90
18697;BME280;22617;43.690;27.956;2022-12-18T11:58:34;100363.72;;;6.38;78.77
18697;BME280;22617;43.690;27.956;2022-12-18T12:09:28;100364.88;;;6.22;78.55
18697;BME280;22617;43.690;27.956;2022-12-18T12:14:45;100370.22;;;6.27;79.75
18697;BME280;22617;43.690;27.956;2022-12-18T12:19:57;100375.81;;;6.13;79.53
18697;BME280;22617;43.690;27.956;2022-12-18T12:25:29;100393.94;;;6.39;78.71
18697;BME280;22617;43.690;27.956;2022-12-18T12:30:42;100379.13;;;6.35;77.89
18697;BME280;22617;43.690;27.956;2022-12-18T12:35:57;100399.47;;;6.24;78.90
18697;BME280;22617;43.690;27.956;2022-12-18T12:41:06;100404.78;;;6.27;78.03
18697;BME280;22617;43.690;27.956;2022-12-18T12:46:35;100407.19;;;5.99;73.45
18697;BME280;22617;43.690;27.956;2022-12-18T12:51:42;100410.75;;;6.02;72.79
18697;BME280;22617;43.690;27.956;2022-12-18T12:56:53;100415.13;;;6.03;72.80
18697;BME280;22617;43.690;27.956;2022-12-18T13:02:02;100415.88;;;6.01;74.07
18697;BME280;22617;43.690;27.956;2022-12-18T13:07:15;100423.09;;;6.09;74.96
18697;BME280;22617;43.690;27.956;2022-12-18T13:12:21;100422.75;;;6.00;76.31
18697;BME280;22617;43.690;27.956;2022-12-18T13:17:43;100434.97;;;6.04;76.16
18697;BME280;22617;43.690;27.956;2022-12-18T13:22:48;100434.63;;;5.95;75.81
18697;BME280;22617;43.690;27.956;2022-12-18T13:28:01;100441.16;;;6.08;76.57
18697;BME280;22617;43.690;27.956;2022-12-18T13:33:37;100447.66;;;5.97;75.49
18697;BME280;22617;43.690;27.956;2022-12-18T13:39:20;100454.50;;;5.74;74.53
18697;BME280;22617;43.690;27.956;2022-12-18T13:44:37;100454.78;;;5.82;75.37
18697;BME280;22617;43.690;27.956;2022-12-18T13:49:43;100462.97;;;5.70;76.21
18697;BME280;22617;43.690;27.956;2022-12-18T13:54:51;100467.00;;;5.86;76.39
18697;BME280;22617;43.690;27.956;2022-12-18T14:00:14;100475.22;;;5.96;77.35
18697;BME280;22617;43.690;27.956;2022-12-18T14:05:24;100488.38;;;5.80;77.74
18697;BME280;22617;43.690;27.956;2022-12-18T14:10:28;100486.78;;;5.84;78.65
18697;BME280;22617;43.690;27.956;2022-12-18T14:15:52;100498.69;;;5.58;79.00
18697;BME280;22617;43.690;27.956;2022-12-18T14:20:58;100509.25;;;5.42;80.31
18697;BME280;22617;43.690;27.956;2022-12-18T14:26:20;100516.75;;;5.36;80.92
18697;BME280;22617;43.690;27.956;2022-12-18T14:31:30;100526.91;;;5.31;81.06
18697;BME280;22617;43.690;27.956;2022-12-18T14:36:34;100526.91;;;5.31;80.88
18697;BME280;22617;43.690;27.956;2022-12-18T14:41:37;100538.13;;;5.32;80.55
18697;BME280;22617;43.690;27.956;2022-12-18T14:46:44;100557.09;;;4.92;81.39
18697;BME280;22617;43.690;27.956;2022-12-18T14:51:48;100568.94;;;4.87;82.33
18697;BME280;22617;43.690;27.956;2022-12-18T14:56:59;100555.44;;;4.94;82.22
18697;BME280;22617;43.690;27.956;2022-12-18T15:02:12;100561.06;;;5.03;80.89
18697;BME280;22617;43.690;27.956;2022-12-18T15:07:19;100575.47;;;4.98;80.79
18697;BME280;22617;43.690;27.956;2022-12-18T15:12:26;100585.94;;;4.63;81.35
18697;BME280;22617;43.690;27.956;2022-12-18T15:17:35;100586.41;;;4.73;81.76
18697;BME280;22617;43.690;27.956;2022-12-18T15:22:47;100602.03;;;4.57;82.57
18697;BME280;22617;43.690;27.956;2022-12-18T15:27:50;100619.38;;;4.60;82.74
18697;BME280;22617;43.690;27.956;2022-12-18T15:33:20;100608.41;;;4.65;82.94
18697;BME280;22617;43.690;27.956;2022-12-18T15:38:27;100613.91;;;4.54;82.57
18697;BME280;22617;43.690;27.956;2022-12-18T15:43:30;100612.94;;;4.69;82.66
18697;BME280;22617;43.690;27.956;2022-12-18T15:48:40;100610.38;;;4.71;82.18
18697;BME280;22617;43.690;27.956;2022-12-18T15:53:44;100616.38;;;4.51;81.71
18697;BME280;22617;43.690;27.956;2022-12-18T15:58:48;100620.81;;;4.35;82.91
18697;BME280;22617;43.690;27.956;2022-12-18T16:03:53;100631.41;;;4.42;81.75
18697;BME280;22617;43.690;27.956;2022-12-18T16:08:57;100644.19;;;4.38;81.60
18697;BME280;22617;43.690;27.956;2022-12-18T16:14:01;100638.47;;;4.26;81.29
18697;BME280;22617;43.690;27.956;2022-12-18T16:19:07;100642.19;;;4.33;80.93
18697;BME280;22617;43.690;27.956;2022-12-18T16:24:14;100650.63;;;4.11;81.35
18697;BME280;22617;43.690;27.956;2022-12-18T16:29:18;100672.88;;;4.09;81.58
18697;BME280;22617;43.690;27.956;2022-12-18T16:34:29;100679.59;;;4.23;80.71
18697;BME280;22617;43.690;27.956;2022-12-18T16:39:37;100672.19;;;4.13;81.09
18697;BME280;22617;43.690;27.956;2022-12-18T16:44:41;100684.16;;;4.11;79.58
18697;BME280;22617;43.690;27.956;2022-12-18T16:49:48;100680.78;;;4.12;79.21
18697;BME280;22617;43.690;27.956;2022-12-18T16:54:53;100686.31;;;4.02;78.64
18697;BME280;22617;43.690;27.956;2022-12-18T16:59:57;100698.88;;;3.78;80.06
18697;BME280;22617;43.690;27.956;2022-12-18T17:05:08;100692.38;;;3.86;80.01
18697;BME280;22617;43.690;27.956;2022-12-18T17:10:12;100704.25;;;3.49;79.80
18697;BME280;22617;43.690;27.956;2022-12-18T17:15:16;100710.09;;;3.46;80.15
18697;BME280;22617;43.690;27.956;2022-12-18T17:20:22;100715.22;;;3.79;80.08
18697;BME280;22617;43.690;27.956;2022-12-18T17:25:26;100715.81;;;3.73;79.54
18697;BME280;22617;43.690;27.956;2022-12-18T17:30:29;100731.03;;;3.36;79.61
18697;BME280;22617;43.690;27.956;2022-12-18T17:35:34;100735.16;;;3.33;79.77
18697;BME280;22617;43.690;27.956;2022-12-18T17:40:38;100737.59;;;3.30;79.92
18697;BME280;22617;43.690;27.956;2022-12-18T17:46:05;100740.06;;;3.28;78.15
18697;BME280;22617;43.690;27.956;2022-12-18T17:51:10;100746.34;;;3.17;78.62
18697;BME280;22617;43.690;27.956;2022-12-18T17:56:16;100749.31;;;3.08;78.82
18697;BME280;22617;43.690;27.956;2022-12-18T18:01:23;100753.91;;;3.14;77.64
18697;BME280;22617;43.690;27.956;2022-12-18T18:06:27;100758.97;;;3.13;77.24
18697;BME280;22617;43.690;27.956;2022-12-18T18:11:33;100769.13;;;3.10;77.17
18697;BME280;22617;43.690;27.956;2022-12-18T18:16:57;100786.66;;;3.00;77.76
18697;BME280;22617;43.690;27.956;2022-12-18T18:22:06;100791.59;;;2.81;77.04
18697;BME280;22617;43.690;27.956;2022-12-18T18:27:09;100791.75;;;2.84;77.97
18697;BME280;22617;43.690;27.956;2022-12-18T18:32:14;100790.72;;;2.81;77.81
18697;BME280;22617;43.690;27.956;2022-12-18T18:37:18;100789.25;;;2.55;78.51
18697;BME280;22617;43.690;27.956;2022-12-18T18:42:21;100775.84;;;2.60;79.20
18697;BME280;22617;43.690;27.956;2022-12-18T18:47:28;100784.00;;;2.68;78.62
18697;BME280;22617;43.690;27.956;2022-12-18T18:52:31;100783.75;;;2.63;79.24
18697;BME280;22617;43.690;27.956;2022-12-18T18:57:35;100780.84;;;2.43;79.42
18697;BME280;22617;43.690;27.956;2022-12-18T19:02:40;100800.19;;;2.36;80.48
18697;BME280;22617;43.690;27.956;2022-12-18T19:07:44;100811.91;;;2.31;80.24
18697;BME280;22617;43.690;27.956;2022-12-18T19:12:48;100818.91;;;2.48;79.64
18697;BME280;22617;43.690;27.956;2022-12-18T19:18:10;100829.47;;;2.53;79.11
18697;BME280;22617;43.690;27.956;2022-12-18T19:23:14;100827.25;;;2.44;78.96
18697;BME280;22617;43.690;27.956;2022-12-18T19:28:21;100826.00;;;2.52;79.29
18697;BME280;22617;43.690;27.956;2022-12-18T19:33:29;100823.78;;;2.58;79.31
18697;BME280;22617;43.690;27.956;2022-12-18T19:38:49;100828.06;;;2.43;79.24
18697;BME280;22617;43.690;27.956;2022-12-18T19:43:53;100825.91;;;2.36;79.02
18697;BME280;22617;43.690;27.956;2022-12-18T19:48:59;100830.16;;;2.36;79.43
18697;BME280;22617;43.690;27.956;2022-12-18T19:54:04;100841.72;;;2.28;79.50
18697;BME280;22617;43.690;27.956;2022-12-18T19:59:08;100828.06;;;2.29;79.90
18697;BME280;22617;43.690;27.956;2022-12-18T20:04:13;100843.84;;;2.35;79.82
18697;BME280;22617;43.690;27.956;2022-12-18T20:09:17;100843.03;;;2.21;80.15
18697;BME280;22617;43.690;27.956;2022-12-18T20:14:22;100832.94;;;2.24;79.96
18697;BME280;22617;43.690;27.956;2022-12-18T20:19:27;100844.44;;;2.16;80.19
18697;BME280;22617;43.690;27.956;2022-12-18T20:24:31;100843.91;;;2.07;80.61
18697;BME280;22617;43.690;27.956;2022-12-18T20:29:34;100851.97;;;2.13;80.56
18697;BME280;22617;43.690;27.956;2022-12-18T20:34:39;100853.03;;;2.16;80.18
18697;BME280;22617;43.690;27.956;2022-12-18T20:39:43;100860.97;;;2.19;80.07
18697;BME280;22617;43.690;27.956;2022-12-18T20:44:48;100871.25;;;2.19;80.36
18697;BME280;22617;43.690;27.956;2022-12-18T20:49:53;100873.09;;;2.37;79.87
18697;BME280;22617;43.690;27.956;2022-12-18T20:54:57;100874.50;;;2.17;80.07
18697;BME280;22617;43.690;27.956;2022-12-18T21:00:05;100888.97;;;1.87;80.24
18697;BME280;22617;43.690;27.956;2022-12-18T21:05:11;100886.72;;;2.06;79.99
18697;BME280;22617;43.690;27.956;2022-12-18T21:10:14;100883.16;;;1.90;78.83
18697;BME280;22617;43.690;27.956;2022-12-18T21:15:18;100903.25;;;2.10;79.38
18697;BME280;22617;43.690;27.956;2022-12-18T21:20:30;100896.41;;;2.10;78.88
18697;BME280;22617;43.690;27.956;2022-12-18T21:25:34;100912.31;;;2.33;78.43
18697;BME280;22617;43.690;27.956;2022-12-18T21:30:37;100917.84;;;2.39;78.23
18697;BME280;22617;43.690;27.956;2022-12-18T21:35:43;100925.03;;;2.02;78.06
18697;BME280;22617;43.690;27.956;2022-12-18T21:40:46;100927.88;;;2.06;78.57
18697;BME280;22617;43.690;27.956;2022-12-18T21:45:50;100925.88;;;1.88;79.05
18697;BME280;22617;43.690;27.956;2022-12-18T21:50:55;100933.28;;;1.55;79.26
18697;BME280;22617;43.690;27.956;2022-12-18T21:55:59;100932.66;;;1.59;79.35
18697;BME280;22617;43.690;27.956;2022-12-18T22:01:02;100934.97;;;1.42;79.83
18697;BME280;22617;43.690;27.956;2022-12-18T22:06:07;100937.22;;;1.50;80.39
18697;BME280;22617;43.690;27.956;2022-12-18T22:11:11;100927.09;;;1.12;80.99
18697;BME280;22617;43.690;27.956;2022-12-18T22:16:17;100948.13;;;1.33;81.94
18697;BME280;22617;43.690;27.956;2022-12-18T22:21:23;100939.34;;;1.16;81.37
18697;BME280;22617;43.690;27.956;2022-12-18T22:26:32;100934.59;;;1.22;81.69
18697;BME280;22617;43.690;27.956;2022-12-18T22:31:41;100930.66;;;1.27;81.67
18697;BME280;22617;43.690;27.956;2022-12-18T22:36:47;100934.31;;;1.05;81.96
18697;BME280;22617;43.690;27.956;2022-12-18T22:41:50;100929.00;;;1.15;82.47
18697;BME280;22617;43.690;27.956;2022-12-18T22:46:55;100930.75;;;1.03;82.48
18697;BME280;22617;43.690;27.956;2022-12-18T22:52:09;100921.25;;;1.02;82.13
18697;BME280;22617;43.690;27.956;2022-12-18T22:57:14;100920.19;;;1.11;82.11
18697;BME280;22617;43.690;27.956;2022-12-18T23:02:18;100922.75;;;0.98;82.45
18697;BME280;22617;43.690;27.956;2022-12-18T23:07:23;100916.31;;;0.92;82.41
18697;BME280;22617;43.690;27.956;2022-12-18T23:12:26;100928.25;;;0.78;82.02
18697;BME280;22617;43.690;27.956;2022-12-18T23:17:30;100921.69;;;0.81;82.08
18697;BME280;22617;43.690;27.956;2022-12-18T23:22:35;100921.38;;;0.90;82.61
18697;BME280;22617;43.690;27.956;2022-12-18T23:27:38;100926.59;;;0.92;82.53
18697;BME280;22617;43.690;27.956;2022-12-18T23:32:42;100931.06;;;0.81;82.34
18697;BME280;22617;43.690;27.956;2022-12-18T23:37:47;100948.91;;;0.93;82.69
18697;BME280;22617;43.690;27.956;2022-12-18T23:43:00;100947.66;;;0.86;81.91
18697;BME280;22617;43.690;27.956;2022-12-18T23:48:03;100954.69;;;0.64;81.75
18697;BME280;22617;43.690;27.956;2022-12-18T23:53:09;100965.66;;;0.61;81.76
18697;BME280;22617;43.690;27.956;2022-12-18T23:58:15;100973.53;;;0.64;81.46
